createdAt,value
2023-01-13T00:00:36.503Z,-6.51
2023-01-13T00:03:03.932Z,-6.44
2023-01-13T00:05:33.893Z,-6.47
2023-01-13T00:08:00.929Z,-6.45
2023-01-13T00:10:27.848Z,-6.40
2023-01-13T00:12:54.829Z,-6.36
2023-01-13T00:15:21.742Z,-6.39
2023-01-13T00:17:49.087Z,-6.40
2023-01-13T00:20:16.450Z,-6.43
2023-01-13T00:22:43.394Z,-6.37
2023-01-13T00:25:10.387Z,-6.41
2023-01-13T00:27:37.371Z,-6.35
2023-01-13T00:30:05.148Z,-6.42
2023-01-13T00:32:32.525Z,-6.41
2023-01-13T00:34:59.523Z,-6.36
2023-01-13T00:37:26.749Z,-6.35
2023-01-13T00:39:53.704Z,-6.30
2023-01-13T00:42:39.364Z,-6.35
2023-01-13T00:45:06.720Z,-6.38
2023-01-13T00:47:33.697Z,-6.37
2023-01-13T00:50:00.616Z,-6.34
2023-01-13T00:52:27.568Z,-6.30
2023-01-13T00:54:54.487Z,-6.28
2023-01-13T00:57:21.429Z,-6.30
2023-01-13T00:59:49.625Z,-6.28
2023-01-13T01:02:16.831Z,-6.30
2023-01-13T01:04:43.809Z,-6.32
2023-01-13T01:07:11.465Z,-6.31
2023-01-13T01:09:39.645Z,-6.39
2023-01-13T01:12:06.663Z,-6.28
2023-01-13T01:14:33.960Z,-6.26
2023-01-13T01:17:00.897Z,-6.29
2023-01-13T01:19:27.996Z,-6.22
2023-01-13T01:21:55.186Z,-6.19
2023-01-13T01:24:22.149Z,-6.30
2023-01-13T01:26:49.014Z,-6.36
2023-01-13T01:29:16.073Z,-6.30
2023-01-13T01:31:43.509Z,-6.29
2023-01-13T01:34:10.932Z,-6.26
2023-01-13T01:36:39.093Z,-6.26
2023-01-13T01:39:06.936Z,-6.26
2023-01-13T01:41:34.941Z,-6.23
2023-01-13T01:44:07.450Z,-6.19
2023-01-13T01:46:39.485Z,-6.18
2023-01-13T01:49:15.705Z,-6.17
2023-01-13T01:51:45.895Z,-6.16
2023-01-13T01:54:15.829Z,-6.23
2023-01-13T01:56:43.561Z,-6.26
2023-01-13T01:59:11.285Z,-6.21
2023-01-13T02:01:38.661Z,-6.22
2023-01-13T02:04:11.351Z,-6.22
2023-01-13T02:06:38.522Z,-6.21
2023-01-13T02:09:05.626Z,-6.18
2023-01-13T02:11:52.854Z,-6.24
2023-01-13T02:14:22.231Z,-6.26
2023-01-13T02:17:18.272Z,-6.23
2023-01-13T02:19:48.217Z,-6.22
2023-01-13T02:22:36.280Z,-6.19
2023-01-13T02:25:09.414Z,-6.18
2023-01-13T02:27:44.880Z,-6.19
2023-01-13T02:30:34.854Z,-6.23
2023-01-13T02:33:20.340Z,-6.18
2023-01-13T02:35:47.223Z,-6.16
2023-01-13T02:38:15.409Z,-6.21
2023-01-13T02:40:59.542Z,-6.19
2023-01-13T02:43:51.291Z,-6.18
2023-01-13T02:46:23.849Z,-6.26
2023-01-13T02:48:52.625Z,-6.18
2023-01-13T02:51:22.362Z,-6.16
2023-01-13T02:54:00.254Z,-6.16
2023-01-13T02:56:27.859Z,-6.15
2023-01-13T02:58:56.517Z,-6.17
2023-01-13T03:01:23.649Z,-6.19
2023-01-13T03:03:50.590Z,-6.18
2023-01-13T03:06:30.051Z,-6.18
2023-01-13T03:08:56.998Z,-6.19
2023-01-13T03:11:27.983Z,-6.19
2023-01-13T03:13:54.835Z,-6.25
2023-01-13T03:16:30.797Z,-6.30
2023-01-13T03:19:12.725Z,-6.31
2023-01-13T03:21:43.523Z,-6.35
2023-01-13T03:24:16.212Z,-6.31
2023-01-13T03:26:58.062Z,-6.27
2023-01-13T03:29:51.224Z,-6.24
2023-01-13T03:32:33.293Z,-6.26
2023-01-13T03:35:04.391Z,-6.23
2023-01-13T03:37:35.121Z,-6.25
2023-01-13T03:40:14.818Z,-6.25
2023-01-13T03:43:03.740Z,-6.21
2023-01-13T03:45:32.280Z,-6.16
2023-01-13T03:48:00.213Z,-6.17
2023-01-13T03:50:30.193Z,-6.13
2023-01-13T03:53:00.250Z,-6.15
2023-01-13T03:55:30.527Z,-6.14
2023-01-13T03:58:04.051Z,-6.12
2023-01-13T04:00:43.974Z,-6.17
2023-01-13T04:03:13.436Z,-6.14
2023-01-13T04:05:42.446Z,-6.25
2023-01-13T04:08:24.278Z,-6.26
2023-01-13T04:10:57.815Z,-6.24
2023-01-13T04:13:26.379Z,-6.26
2023-01-13T04:15:53.511Z,-6.28
2023-01-13T04:18:27.775Z,-6.29
2023-01-13T04:20:56.424Z,-6.27
2023-01-13T04:23:23.981Z,-6.28
2023-01-13T04:25:54.523Z,-6.23
2023-01-13T04:28:21.852Z,-6.19
2023-01-13T04:30:49.319Z,-6.17
2023-01-13T04:33:17.178Z,-6.24
2023-01-13T04:35:45.302Z,-6.24
2023-01-13T04:38:13.655Z,-6.22
2023-01-13T04:40:41.546Z,-6.21
2023-01-13T04:43:09.062Z,-6.24
2023-01-13T04:45:35.976Z,-6.23
2023-01-13T04:48:02.896Z,-6.23
2023-01-13T04:50:29.809Z,-6.26
2023-01-13T04:52:56.961Z,-6.24
2023-01-13T04:55:24.697Z,-6.17
2023-01-13T04:57:54.443Z,-6.28
2023-01-13T05:00:22.500Z,-6.31
2023-01-13T05:02:51.222Z,-6.28
2023-01-13T05:05:19.035Z,-6.23
2023-01-13T05:07:46.613Z,-6.16
2023-01-13T05:10:24.120Z,-6.24
2023-01-13T05:13:11.258Z,-6.21
2023-01-13T05:15:58.413Z,-6.22
2023-01-13T05:18:25.832Z,-6.16
2023-01-13T05:20:52.778Z,-6.21
2023-01-13T05:23:38.899Z,-6.22
2023-01-13T05:26:06.380Z,-6.21
2023-01-13T05:28:33.819Z,-6.17
2023-01-13T05:31:00.835Z,-6.22
2023-01-13T05:33:29.045Z,-6.28
2023-01-13T05:35:56.108Z,-6.28
2023-01-13T05:38:23.127Z,-6.29
2023-01-13T05:41:08.505Z,-6.24
2023-01-13T05:43:35.620Z,-6.17
2023-01-13T05:46:05.754Z,-6.13
2023-01-13T05:48:34.115Z,-6.21
2023-01-13T05:51:01.491Z,-6.26
2023-01-13T05:53:28.819Z,-6.30
2023-01-13T05:55:56.059Z,-6.33
2023-01-13T05:58:24.695Z,-6.37
2023-01-13T06:00:52.495Z,-6.32
2023-01-13T06:03:20.356Z,-6.29
2023-01-13T06:05:47.781Z,-6.25
2023-01-13T06:08:14.898Z,-6.26
2023-01-13T06:10:41.983Z,-6.22
2023-01-13T06:13:09.129Z,-6.14
2023-01-13T06:15:36.044Z,-6.27
2023-01-13T06:18:04.425Z,-6.26
2023-01-13T06:20:31.464Z,-6.27
2023-01-13T06:22:59.227Z,-6.26
2023-01-13T06:25:28.993Z,-6.19
2023-01-13T06:27:57.006Z,-6.29
2023-01-13T06:30:24.096Z,-6.22
2023-01-13T06:32:55.635Z,-6.18
2023-01-13T06:35:25.673Z,-6.20
2023-01-13T06:37:55.037Z,-6.16
2023-01-13T06:40:22.543Z,-6.10
2023-01-13T06:43:08.444Z,-6.10
2023-01-13T06:45:35.699Z,-6.19
2023-01-13T06:48:02.760Z,-6.26
2023-01-13T06:50:30.490Z,-6.28
2023-01-13T06:52:57.527Z,-6.25
2023-01-13T06:55:25.195Z,-6.21
2023-01-13T06:57:53.701Z,-6.30
2023-01-13T07:00:21.245Z,-6.22
2023-01-13T07:02:48.268Z,-6.18
2023-01-13T07:05:15.907Z,-6.19
2023-01-13T07:07:42.895Z,-6.13
2023-01-13T07:10:13.237Z,-6.13
2023-01-13T07:13:00.298Z,-6.09
2023-01-13T07:15:27.388Z,-6.08
2023-01-13T07:17:54.496Z,-6.03
2023-01-13T07:20:21.506Z,-5.98
2023-01-13T07:22:54.330Z,-5.88
2023-01-13T07:25:21.831Z,-5.88
2023-01-13T07:27:48.753Z,-5.87
2023-01-13T07:30:17.498Z,-5.86
2023-01-13T07:32:44.403Z,-5.85
2023-01-13T07:35:11.342Z,-5.85
2023-01-13T07:37:39.737Z,-5.82
2023-01-13T07:40:07.057Z,-5.76
2023-01-13T07:42:52.656Z,-5.78
2023-01-13T07:45:19.493Z,-5.82
2023-01-13T07:47:46.726Z,-5.75
2023-01-13T07:50:13.780Z,-5.75
2023-01-13T07:52:40.695Z,-5.77
2023-01-13T07:55:07.798Z,-5.84
2023-01-13T07:57:34.747Z,-5.85
2023-01-13T08:00:01.953Z,-5.91
2023-01-13T08:02:32.111Z,-5.97
2023-01-13T08:04:59.413Z,-6.03
2023-01-13T08:07:26.416Z,-6.06
2023-01-13T08:09:53.407Z,-5.99
2023-01-13T08:12:41.469Z,-5.91
2023-01-13T08:15:21.490Z,-5.88
2023-01-13T08:17:48.747Z,-5.93
2023-01-13T08:20:15.932Z,-6.04
2023-01-13T08:22:43.034Z,-5.92
2023-01-13T08:25:10.289Z,-5.84
2023-01-13T08:27:37.667Z,-5.86
2023-01-13T08:30:06.092Z,-5.76
2023-01-13T08:32:33.088Z,-5.74
2023-01-13T08:35:00.195Z,-5.63
2023-01-13T08:37:27.097Z,-5.73
2023-01-13T08:39:54.138Z,-5.75
2023-01-13T08:42:21.159Z,-5.68
2023-01-13T08:44:48.293Z,-5.74
2023-01-13T08:47:15.342Z,-5.84
2023-01-13T08:49:42.741Z,-5.72
2023-01-13T08:52:09.999Z,-5.70
2023-01-13T08:54:38.184Z,-5.64
2023-01-13T08:57:05.541Z,-5.69
2023-01-13T08:59:33.084Z,-5.73
2023-01-13T09:02:00.930Z,-5.71
2023-01-13T09:04:28.729Z,-5.71
2023-01-13T09:06:56.715Z,-5.78
2023-01-13T09:09:24.186Z,-5.70
2023-01-13T09:12:10.534Z,-5.75
2023-01-13T09:14:38.524Z,-5.77
2023-01-13T09:17:06.040Z,-5.81
2023-01-13T09:19:33.081Z,-5.73
2023-01-13T09:22:00.500Z,-5.66
2023-01-13T09:24:27.877Z,-5.71
2023-01-13T09:26:54.863Z,-5.77
2023-01-13T09:29:21.914Z,-5.73
2023-01-13T09:31:49.036Z,-5.74
2023-01-13T09:34:55.943Z,-5.79
2023-01-13T09:37:22.871Z,-5.82
2023-01-13T09:39:49.898Z,-5.85
2023-01-13T09:42:55.274Z,-5.83
2023-01-13T09:45:36.323Z,-5.81
2023-01-13T09:48:03.215Z,-5.72
2023-01-13T09:50:34.336Z,-5.66
2023-01-13T09:53:01.441Z,-5.72
2023-01-13T09:55:31.756Z,-5.72
2023-01-13T09:57:59.177Z,-5.66
2023-01-13T10:00:29.096Z,-5.60
2023-01-13T10:03:14.516Z,-5.64
2023-01-13T10:05:43.310Z,-5.62
2023-01-13T10:08:10.408Z,-5.62
2023-01-13T10:10:37.317Z,-5.61
2023-01-13T10:13:14.387Z,-5.63
2023-01-13T10:16:05.734Z,-5.64
2023-01-13T10:18:33.415Z,-5.54
2023-01-13T10:21:25.167Z,-5.54
2023-01-13T10:23:55.614Z,-5.46
2023-01-13T10:26:29.938Z,-5.55
2023-01-13T10:28:57.496Z,-5.48
2023-01-13T10:34:07.748Z,-5.46
2023-01-13T10:36:35.087Z,-5.48
2023-01-13T10:39:10.083Z,-5.56
2023-01-13T10:41:37.196Z,-5.54
2023-01-13T10:44:07.231Z,-5.58
2023-01-13T10:46:50.009Z,-5.51
2023-01-13T10:49:28.664Z,-5.53
2023-01-13T10:51:56.497Z,-5.51
2023-01-13T10:54:27.177Z,-5.45
2023-01-13T10:57:15.916Z,-5.35
2023-01-13T10:59:44.481Z,-5.33
2023-01-13T11:02:30.998Z,-5.39
2023-01-13T11:05:03.381Z,-5.35
2023-01-13T11:07:31.175Z,-5.30
2023-01-13T11:10:21.470Z,-5.24
2023-01-13T11:12:48.965Z,-5.23
2023-01-13T11:15:19.337Z,-5.25
2023-01-13T11:17:48.821Z,-5.32
2023-01-13T11:20:31.357Z,-5.33
2023-01-13T11:23:00.884Z,-5.38
2023-01-13T11:25:41.550Z,-5.47
2023-01-13T11:28:24.122Z,-5.43
2023-01-13T11:31:02.770Z,-5.43
2023-01-13T11:33:34.167Z,-5.38
2023-01-13T11:38:57.615Z,-5.37
2023-01-13T11:41:33.003Z,-5.28
2023-01-13T11:44:07.004Z,-5.33
2023-01-13T11:46:34.146Z,-5.42
2023-01-13T11:49:01.268Z,-5.46
2023-01-13T11:51:31.229Z,-5.51
2023-01-13T11:54:17.397Z,-5.53
2023-01-13T11:57:03.397Z,-5.46
2023-01-13T11:59:50.465Z,-5.43
2023-01-13T12:02:36.355Z,-5.37
2023-01-13T12:05:06.569Z,-5.33
2023-01-13T12:07:51.939Z,-5.28
2023-01-13T12:10:26.332Z,-5.32
2023-01-13T12:13:11.977Z,-5.28
2023-01-13T12:15:57.601Z,-5.31
2023-01-13T12:18:41.638Z,-5.22
2023-01-13T12:21:22.520Z,-5.21
2023-01-13T12:23:50.045Z,-5.22
2023-01-13T12:26:19.629Z,-5.28
2023-01-13T12:29:10.843Z,-5.23
2023-01-13T12:31:39.394Z,-5.25
2023-01-13T12:34:31.238Z,-5.29
2023-01-13T12:37:09.095Z,-5.25
2023-01-13T12:39:55.139Z,-5.29
2023-01-13T12:42:49.878Z,-5.29
2023-01-13T12:45:21.045Z,-5.25
2023-01-13T12:47:48.823Z,-5.30
2023-01-13T12:50:28.384Z,-5.25
2023-01-13T12:53:18.394Z,-5.26
2023-01-13T12:55:45.563Z,-5.27
2023-01-13T12:58:17.038Z,-5.24
2023-01-13T13:00:45.518Z,-5.27
2023-01-13T13:03:19.486Z,-5.22
2023-01-13T13:05:51.163Z,-5.20
2023-01-13T13:08:22.484Z,-5.18
2023-01-13T13:11:34.331Z,-5.21
2023-01-13T13:14:02.093Z,-5.29
2023-01-13T13:16:29.691Z,-5.25
2023-01-13T13:19:27.929Z,-5.23
2023-01-13T13:22:17.291Z,-5.28
2023-01-13T13:25:04.094Z,-5.25
2023-01-13T13:27:39.487Z,-5.25
2023-01-13T13:30:25.608Z,-5.27
2023-01-13T13:32:59.425Z,-5.28
2023-01-13T13:35:41.770Z,-5.24
2023-01-13T13:38:49.823Z,-5.20
2023-01-13T13:41:38.189Z,-5.13
2023-01-13T13:47:27.264Z,-5.14
2023-01-13T13:49:54.789Z,-5.15
2023-01-13T13:52:28.108Z,-5.24
2023-01-13T13:54:59.012Z,-5.11
2023-01-13T13:57:32.613Z,-5.11
2023-01-13T14:00:01.030Z,-5.17
2023-01-13T14:02:32.875Z,-5.21
2023-01-13T14:05:17.576Z,-5.17
2023-01-13T14:08:05.591Z,-5.06
2023-01-13T14:10:36.444Z,-5.07
2023-01-13T14:13:14.229Z,-5.13
2023-01-13T14:15:44.323Z,-5.26
2023-01-13T14:18:13.521Z,-5.20
2023-01-13T14:20:43.731Z,-5.09
2023-01-13T14:23:18.427Z,-5.07
2023-01-13T14:25:49.996Z,-5.10
2023-01-13T14:28:17.327Z,-5.15
2023-01-13T14:30:46.555Z,-5.13
2023-01-13T14:33:23.413Z,-5.04
2023-01-13T14:36:07.391Z,-5.02
2023-01-13T14:38:34.402Z,-4.97
2023-01-13T14:41:12.369Z,-4.97
2023-01-13T14:43:44.333Z,-5.00
2023-01-13T14:46:11.944Z,-5.01
2023-01-13T14:48:40.381Z,-5.04
2023-01-13T14:51:12.086Z,-5.04
2023-01-13T14:53:40.302Z,-5.02
2023-01-13T14:56:28.660Z,-4.98
2023-01-13T14:59:01.494Z,-4.94
2023-01-13T15:01:36.533Z,-5.04
2023-01-13T15:04:16.773Z,-4.95
2023-01-13T15:06:47.908Z,-4.98
2023-01-13T15:09:15.029Z,-4.89
2023-01-13T15:11:42.212Z,-4.92
2023-01-13T15:14:11.054Z,-4.89
2023-01-13T15:19:19.474Z,-4.82
2023-01-13T15:21:46.678Z,-4.85
2023-01-13T15:24:13.693Z,-4.87
2023-01-13T15:26:42.384Z,-4.81
2023-01-13T15:29:14.250Z,-4.85
2023-01-13T15:31:43.457Z,-4.84
2023-01-13T15:34:10.504Z,-4.84
2023-01-13T15:36:38.369Z,-4.89
2023-01-13T15:39:06.704Z,-4.94
2023-01-13T15:41:53.170Z,-4.91
2023-01-13T15:44:39.047Z,-4.88
2023-01-13T15:47:07.701Z,-4.80
2023-01-13T15:49:38.085Z,-4.78
2023-01-13T15:52:14.294Z,-4.75
2023-01-13T15:54:44.342Z,-4.76
2023-01-13T15:57:31.956Z,-4.79
2023-01-13T16:00:01.446Z,-4.77
2023-01-13T16:05:14.733Z,-4.67
2023-01-13T16:07:42.171Z,-4.70
2023-01-13T16:10:20.953Z,-4.69
2023-01-13T16:12:52.658Z,-4.71
2023-01-13T16:15:22.655Z,-4.72
2023-01-13T16:17:54.361Z,-4.70
2023-01-13T16:20:27.447Z,-4.61
2023-01-13T16:22:55.295Z,-4.62
2023-01-13T16:25:24.804Z,-4.63
2023-01-13T16:27:51.949Z,-4.63
2023-01-13T16:30:36.311Z,-4.56
2023-01-13T16:33:49.574Z,-4.46
2023-01-13T16:38:58.949Z,-4.36
2023-01-13T16:41:26.308Z,-4.32
2023-01-13T16:43:54.427Z,-4.36
2023-01-13T16:46:21.615Z,-4.41
2023-01-13T16:48:50.132Z,-4.42
2023-01-13T16:51:19.773Z,-4.40
2023-01-13T16:53:47.700Z,-4.40
2023-01-13T16:56:24.229Z,-4.51
2023-01-13T16:58:56.525Z,-4.55
2023-01-13T17:01:27.975Z,-4.58
2023-01-13T17:03:59.526Z,-4.67
2023-01-13T17:07:19.507Z,-4.69
2023-01-13T17:10:22.693Z,-4.67
2023-01-13T17:12:50.433Z,-4.65
2023-01-13T17:15:20.604Z,-4.65
2023-01-13T17:17:52.376Z,-4.65
2023-01-13T17:20:19.627Z,-4.66
2023-01-13T17:22:49.703Z,-4.65
2023-01-13T17:25:21.915Z,-4.66
2023-01-13T17:27:50.772Z,-4.62
2023-01-13T17:30:22.500Z,-4.66
2023-01-13T17:33:09.561Z,-4.60
2023-01-13T17:35:39.372Z,-4.63
2023-01-13T17:38:07.265Z,-4.62
2023-01-13T17:40:34.605Z,-4.65
2023-01-13T17:43:01.601Z,-4.57
2023-01-13T17:45:30.183Z,-4.65
2023-01-13T17:48:01.026Z,-4.68
2023-01-13T17:50:30.244Z,-4.68
2023-01-13T17:52:58.119Z,-4.67
2023-01-13T17:55:25.188Z,-4.61
2023-01-13T17:57:52.599Z,-4.68
2023-01-13T18:00:19.983Z,-4.63
2023-01-13T18:02:47.174Z,-4.66
2023-01-13T18:05:14.502Z,-4.59
2023-01-13T18:08:27.748Z,-4.56
2023-01-13T18:10:57.701Z,-4.59
2023-01-13T18:13:47.640Z,-4.50
2023-01-13T18:16:16.214Z,-4.50
2023-01-13T18:18:46.541Z,-4.48
2023-01-13T18:21:37.981Z,-4.48
2023-01-13T18:24:24.254Z,-4.46
2023-01-13T18:27:10.903Z,-4.49
2023-01-13T18:29:37.999Z,-4.46
2023-01-13T18:34:46.384Z,-4.49
2023-01-13T18:37:14.478Z,-4.49
2023-01-13T18:39:43.000Z,-4.43
2023-01-13T18:42:29.759Z,-4.37
2023-01-13T18:44:58.008Z,-4.37
2023-01-13T18:47:26.278Z,-4.37
2023-01-13T18:49:53.515Z,-4.42
2023-01-13T18:52:24.484Z,-4.42
2023-01-13T18:54:51.751Z,-4.37
2023-01-13T18:57:19.384Z,-4.43
2023-01-13T18:59:47.944Z,-4.47
2023-01-13T19:02:19.183Z,-4.44
2023-01-13T19:04:46.657Z,-4.48
2023-01-13T19:07:23.857Z,-4.42
2023-01-13T19:09:55.936Z,-4.45
2023-01-13T19:12:34.457Z,-4.42
2023-01-13T19:15:02.235Z,-4.45
2023-01-13T19:17:40.343Z,-4.38
2023-01-13T19:20:12.290Z,-4.41
2023-01-13T19:22:42.492Z,-4.36
2023-01-13T19:25:09.632Z,-4.31
2023-01-13T19:27:36.967Z,-4.30
2023-01-13T19:30:04.281Z,-4.30
2023-01-13T19:35:17.736Z,-4.29
2023-01-13T19:37:55.480Z,-4.31
2023-01-13T19:40:22.745Z,-4.29
2023-01-13T19:43:08.998Z,-4.31
2023-01-13T19:45:44.986Z,-4.32
2023-01-13T19:48:18.618Z,-4.30
2023-01-13T19:50:49.692Z,-4.32
2023-01-13T19:53:20.429Z,-4.33
2023-01-13T19:55:52.409Z,-4.26
2023-01-13T19:58:23.818Z,-4.27
2023-01-13T20:00:51.593Z,-4.24
2023-01-13T20:03:21.051Z,-4.34
2023-01-13T20:05:49.232Z,-4.28
2023-01-13T20:08:18.441Z,-4.33
2023-01-13T20:10:46.872Z,-4.25
2023-01-13T20:13:15.057Z,-4.31
2023-01-13T20:15:43.673Z,-4.32
2023-01-13T20:18:13.799Z,-4.37
2023-01-13T20:20:44.216Z,-4.32
2023-01-13T20:23:11.726Z,-4.31
2023-01-13T20:25:41.500Z,-4.28
2023-01-13T20:28:09.014Z,-4.29
2023-01-13T20:30:36.535Z,-4.28
2023-01-13T20:33:04.117Z,-4.28
2023-01-13T20:35:33.483Z,-4.28
2023-01-13T20:38:01.237Z,-4.25
2023-01-13T20:40:28.372Z,-4.27
2023-01-13T20:42:55.477Z,-4.23
2023-01-13T20:45:23.539Z,-4.23
2023-01-13T20:47:58.088Z,-4.18
2023-01-13T20:50:25.019Z,-4.22
2023-01-13T20:52:52.981Z,-4.21
2023-01-13T20:55:20.276Z,-4.23
2023-01-13T20:57:49.153Z,-4.17
2023-01-13T21:00:17.447Z,-4.18
2023-01-13T21:02:44.921Z,-4.09
2023-01-13T21:05:12.189Z,-4.05
2023-01-13T21:07:39.525Z,-4.02
2023-01-13T21:10:07.159Z,-4.05
2023-01-13T21:12:57.682Z,-4.06
2023-01-13T21:15:26.024Z,-4.05
2023-01-13T21:18:11.500Z,-4.06
2023-01-13T21:20:39.381Z,-4.06
2023-01-13T21:23:06.915Z,-4.05
2023-01-13T21:25:35.527Z,-3.99
2023-01-13T21:28:06.292Z,-4.04
2023-01-13T21:30:33.873Z,-4.10
2023-01-13T21:33:01.386Z,-3.99
2023-01-13T21:35:29.725Z,-3.96
2023-01-13T21:37:57.289Z,-4.04
2023-01-13T21:40:24.665Z,-4.05
2023-01-13T21:43:10.435Z,-4.01
2023-01-13T21:45:57.363Z,-4.00
2023-01-13T21:48:31.488Z,-3.99
2023-01-13T21:51:01.653Z,-4.06
2023-01-13T21:53:28.626Z,-4.00
2023-01-13T21:55:55.547Z,-4.02
2023-01-13T21:58:22.611Z,-4.00
2023-01-13T22:00:50.161Z,-4.08
2023-01-13T22:03:19.101Z,-4.05
2023-01-13T22:05:46.777Z,-3.97
2023-01-13T22:08:13.931Z,-3.97
2023-01-13T22:11:00.499Z,-3.97
2023-01-13T22:13:47.733Z,-4.03
2023-01-13T22:16:18.301Z,-4.00
2023-01-13T22:18:45.420Z,-3.95
2023-01-13T22:21:12.709Z,-4.00
2023-01-13T22:23:41.084Z,-4.04
2023-01-13T22:26:08.419Z,-3.93
2023-01-13T22:28:40.889Z,-3.91
2023-01-13T22:31:09.104Z,-3.92
2023-01-13T22:33:36.327Z,-3.89
2023-01-13T22:36:03.417Z,-3.86
2023-01-13T22:38:30.953Z,-3.87
2023-01-13T22:40:58.794Z,-3.88
2023-01-13T22:43:29.988Z,-3.90
2023-01-13T22:45:58.122Z,-3.90
2023-01-13T22:48:25.198Z,-3.86
2023-01-13T22:50:53.601Z,-3.86
2023-01-13T22:53:20.893Z,-3.82
2023-01-13T22:55:57.953Z,-3.77
2023-01-13T22:58:25.632Z,-3.78
2023-01-13T23:00:53.264Z,-3.78
2023-01-13T23:03:20.327Z,-3.76
2023-01-13T23:05:47.387Z,-3.74
2023-01-13T23:08:14.791Z,-3.76
2023-01-13T23:10:42.042Z,-3.71
2023-01-13T23:13:09.070Z,-3.70
2023-01-13T23:15:36.000Z,-3.71
2023-01-13T23:18:02.980Z,-3.70
2023-01-13T23:20:30.892Z,-3.70
2023-01-13T23:22:59.557Z,-3.69
2023-01-13T23:25:26.737Z,-3.66
2023-01-13T23:27:53.704Z,-3.64
2023-01-13T23:30:20.685Z,-3.62
2023-01-13T23:32:47.665Z,-3.60
2023-01-13T23:35:15.771Z,-3.61
2023-01-13T23:37:42.835Z,-3.57
2023-01-13T23:40:10.237Z,-3.60
2023-01-13T23:42:37.273Z,-3.55
2023-01-13T23:45:04.564Z,-3.58
2023-01-13T23:47:31.816Z,-3.53
2023-01-13T23:49:58.776Z,-3.54
2023-01-13T23:52:25.724Z,-3.48
2023-01-13T23:54:52.759Z,-3.53
2023-01-13T23:57:19.738Z,-3.43
2023-01-13T23:59:46.753Z,-3.43
